sensor_id;sensor_type;location;lat;lon;timestamp;P1;durP1;ratioP1;P2;durP2;ratioP2
59127;SDS011;44912;52.754;5.994;2024-02-26T00:00:34;14.77;;;10.40;;
59127;SDS011;44912;52.754;5.994;2024-02-26T00:03:00;15.88;;;10.35;;
59127;SDS011;44912;52.754;5.994;2024-02-26T00:05:26;15.02;;;9.48;;
59127;SDS011;44912;52.754;5.994;2024-02-26T00:07:52;14.80;;;10.20;;
59127;SDS011;44912;52.754;5.994;2024-02-26T00:10:17;15.02;;;9.95;;
59127;SDS011;44912;52.754;5.994;2024-02-26T00:12:43;15.57;;;9.90;;
59127;SDS011;44912;52.754;5.994;2024-02-26T00:15:09;15.80;;;10.05;;
59127;SDS011;44912;52.754;5.994;2024-02-26T00:17:35;15.68;;;9.93;;
59127;SDS011;44912;52.754;5.994;2024-02-26T00:20:04;13.65;;;9.18;;
59127;SDS011;44912;52.754;5.994;2024-02-26T00:22:33;16.27;;;9.38;;
59127;SDS011;44912;52.754;5.994;2024-02-26T00:24:59;15.40;;;9.77;;
59127;SDS011;44912;52.754;5.994;2024-02-26T00:27:25;16.73;;;9.93;;
59127;SDS011;44912;52.754;5.994;2024-02-26T00:29:50;15.57;;;10.35;;
59127;SDS011;44912;52.754;5.994;2024-02-26T00:32:16;14.88;;;9.65;;
59127;SDS011;44912;52.754;5.994;2024-02-26T00:34:42;15.77;;;9.55;;
59127;SDS011;44912;52.754;5.994;2024-02-26T00:37:07;14.77;;;9.23;;
59127;SDS011;44912;52.754;5.994;2024-02-26T00:39:33;14.50;;;10.00;;
59127;SDS011;44912;52.754;5.994;2024-02-26T00:41:59;18.08;;;9.95;;
59127;SDS011;44912;52.754;5.994;2024-02-26T00:44:24;16.50;;;10.18;;
59127;SDS011;44912;52.754;5.994;2024-02-26T00:46:50;15.68;;;9.93;;
59127;SDS011;44912;52.754;5.994;2024-02-26T00:49:16;15.35;;;10.02;;
59127;SDS011;44912;52.754;5.994;2024-02-26T00:51:41;14.13;;;8.82;;
59127;SDS011;44912;52.754;5.994;2024-02-26T00:54:07;16.40;;;10.27;;
59127;SDS011;44912;52.754;5.994;2024-02-26T00:56:32;16.13;;;9.63;;
59127;SDS011;44912;52.754;5.994;2024-02-26T00:58:58;16.63;;;9.68;;
59127;SDS011;44912;52.754;5.994;2024-02-26T01:01:24;17.45;;;10.90;;
59127;SDS011;44912;52.754;5.994;2024-02-26T01:03:49;17.95;;;10.30;;
59127;SDS011;44912;52.754;5.994;2024-02-26T01:06:15;17.75;;;10.70;;
59127;SDS011;44912;52.754;5.994;2024-02-26T01:08:41;17.55;;;10.85;;
59127;SDS011;44912;52.754;5.994;2024-02-26T01:11:06;15.65;;;10.43;;
59127;SDS011;44912;52.754;5.994;2024-02-26T01:13:32;15.63;;;10.00;;
59127;SDS011;44912;52.754;5.994;2024-02-26T01:15:58;16.45;;;10.32;;
59127;SDS011;44912;52.754;5.994;2024-02-26T01:18:25;18.75;;;11.35;;
59127;SDS011;44912;52.754;5.994;2024-02-26T01:20:51;19.15;;;11.93;;
59127;SDS011;44912;52.754;5.994;2024-02-26T01:23:19;17.02;;;11.27;;
59127;SDS011;44912;52.754;5.994;2024-02-26T01:25:45;21.40;;;11.13;;
59127;SDS011;44912;52.754;5.994;2024-02-26T01:28:10;18.67;;;11.48;;
59127;SDS011;44912;52.754;5.994;2024-02-26T01:30:36;16.58;;;10.32;;
59127;SDS011;44912;52.754;5.994;2024-02-26T01:33:02;19.17;;;12.40;;
59127;SDS011;44912;52.754;5.994;2024-02-26T01:35:28;20.42;;;12.05;;
59127;SDS011;44912;52.754;5.994;2024-02-26T01:37:54;19.50;;;11.93;;
59127;SDS011;44912;52.754;5.994;2024-02-26T01:40:20;23.25;;;12.90;;
59127;SDS011;44912;52.754;5.994;2024-02-26T01:42:46;19.73;;;12.50;;
59127;SDS011;44912;52.754;5.994;2024-02-26T01:45:16;21.17;;;12.30;;
59127;SDS011;44912;52.754;5.994;2024-02-26T01:47:50;19.95;;;12.32;;
59127;SDS011;44912;52.754;5.994;2024-02-26T01:50:17;19.45;;;11.85;;
59127;SDS011;44912;52.754;5.994;2024-02-26T01:52:43;22.10;;;13.77;;
59127;SDS011;44912;52.754;5.994;2024-02-26T01:55:14;21.95;;;12.00;;
59127;SDS011;44912;52.754;5.994;2024-02-26T01:57:41;21.15;;;12.25;;
59127;SDS011;44912;52.754;5.994;2024-02-26T02:00:08;20.33;;;12.23;;
59127;SDS011;44912;52.754;5.994;2024-02-26T02:02:35;20.38;;;12.25;;
59127;SDS011;44912;52.754;5.994;2024-02-26T02:05:01;20.50;;;11.98;;
59127;SDS011;44912;52.754;5.994;2024-02-26T02:07:27;20.70;;;12.68;;
59127;SDS011;44912;52.754;5.994;2024-02-26T02:09:54;22.35;;;12.63;;
59127;SDS011;44912;52.754;5.994;2024-02-26T02:12:21;21.73;;;11.90;;
59127;SDS011;44912;52.754;5.994;2024-02-26T02:14:47;20.85;;;12.15;;
59127;SDS011;44912;52.754;5.994;2024-02-26T02:17:12;21.17;;;11.93;;
59127;SDS011;44912;52.754;5.994;2024-02-26T02:19:38;18.80;;;11.43;;
59127;SDS011;44912;52.754;5.994;2024-02-26T02:22:04;22.45;;;12.90;;
59127;SDS011;44912;52.754;5.994;2024-02-26T02:24:29;23.50;;;12.35;;
59127;SDS011;44912;52.754;5.994;2024-02-26T02:26:55;21.75;;;12.02;;
59127;SDS011;44912;52.754;5.994;2024-02-26T02:29:21;21.33;;;12.18;;
59127;SDS011;44912;52.754;5.994;2024-02-26T02:31:47;23.83;;;13.43;;
59127;SDS011;44912;52.754;5.994;2024-02-26T02:34:12;22.35;;;13.32;;
59127;SDS011;44912;52.754;5.994;2024-02-26T02:36:51;25.27;;;13.80;;
59127;SDS011;44912;52.754;5.994;2024-02-26T02:39:17;24.13;;;14.05;;
59127;SDS011;44912;52.754;5.994;2024-02-26T02:41:43;26.98;;;15.25;;
59127;SDS011;44912;52.754;5.994;2024-02-26T02:44:09;27.63;;;14.65;;
59127;SDS011;44912;52.754;5.994;2024-02-26T02:46:34;27.83;;;15.07;;
59127;SDS011;44912;52.754;5.994;2024-02-26T02:49:00;26.17;;;14.52;;
59127;SDS011;44912;52.754;5.994;2024-02-26T02:51:26;25.52;;;14.80;;
59127;SDS011;44912;52.754;5.994;2024-02-26T02:53:52;28.45;;;16.42;;
59127;SDS011;44912;52.754;5.994;2024-02-26T02:56:18;28.77;;;16.02;;
59127;SDS011;44912;52.754;5.994;2024-02-26T02:58:44;30.00;;;16.95;;
59127;SDS011;44912;52.754;5.994;2024-02-26T03:01:09;30.33;;;16.33;;
59127;SDS011;44912;52.754;5.994;2024-02-26T03:03:35;31.10;;;17.02;;
59127;SDS011;44912;52.754;5.994;2024-02-26T03:06:02;30.02;;;17.98;;
59127;SDS011;44912;52.754;5.994;2024-02-26T03:08:28;29.42;;;17.73;;
59127;SDS011;44912;52.754;5.994;2024-02-26T03:10:54;31.98;;;18.25;;
59127;SDS011;44912;52.754;5.994;2024-02-26T03:13:20;30.70;;;18.48;;
59127;SDS011;44912;52.754;5.994;2024-02-26T03:15:45;29.80;;;17.92;;
59127;SDS011;44912;52.754;5.994;2024-02-26T03:18:11;30.70;;;18.63;;
59127;SDS011;44912;52.754;5.994;2024-02-26T03:20:37;30.85;;;18.27;;
59127;SDS011;44912;52.754;5.994;2024-02-26T03:23:02;30.17;;;18.02;;
59127;SDS011;44912;52.754;5.994;2024-02-26T03:25:28;31.58;;;18.80;;
59127;SDS011;44912;52.754;5.994;2024-02-26T03:27:54;31.45;;;19.55;;
59127;SDS011;44912;52.754;5.994;2024-02-26T03:30:20;32.72;;;19.45;;
59127;SDS011;44912;52.754;5.994;2024-02-26T03:32:45;32.00;;;19.52;;
59127;SDS011;44912;52.754;5.994;2024-02-26T03:35:12;31.58;;;19.20;;
59127;SDS011;44912;52.754;5.994;2024-02-26T03:37:38;30.88;;;19.10;;
59127;SDS011;44912;52.754;5.994;2024-02-26T03:40:04;30.98;;;18.52;;
59127;SDS011;44912;52.754;5.994;2024-02-26T03:42:31;29.58;;;18.85;;
59127;SDS011;44912;52.754;5.994;2024-02-26T03:44:56;29.95;;;18.55;;
59127;SDS011;44912;52.754;5.994;2024-02-26T03:47:22;30.50;;;18.63;;
59127;SDS011;44912;52.754;5.994;2024-02-26T03:49:47;33.10;;;20.05;;
59127;SDS011;44912;52.754;5.994;2024-02-26T03:52:13;30.98;;;19.92;;
59127;SDS011;44912;52.754;5.994;2024-02-26T03:54:40;30.23;;;18.25;;
59127;SDS011;44912;52.754;5.994;2024-02-26T03:57:05;31.92;;;19.08;;
59127;SDS011;44912;52.754;5.994;2024-02-26T03:59:31;31.60;;;19.40;;
59127;SDS011;44912;52.754;5.994;2024-02-26T04:01:56;32.80;;;20.20;;
59127;SDS011;44912;52.754;5.994;2024-02-26T04:04:22;31.20;;;19.80;;
59127;SDS011;44912;52.754;5.994;2024-02-26T04:06:48;30.30;;;18.85;;
59127;SDS011;44912;52.754;5.994;2024-02-26T04:09:14;30.90;;;18.67;;
59127;SDS011;44912;52.754;5.994;2024-02-26T04:11:39;29.77;;;18.63;;
59127;SDS011;44912;52.754;5.994;2024-02-26T04:14:05;31.13;;;19.10;;
59127;SDS011;44912;52.754;5.994;2024-02-26T04:16:33;29.98;;;18.52;;
59127;SDS011;44912;52.754;5.994;2024-02-26T04:19:00;27.67;;;18.20;;
59127;SDS011;44912;52.754;5.994;2024-02-26T04:21:26;29.27;;;17.50;;
59127;SDS011;44912;52.754;5.994;2024-02-26T04:23:52;27.48;;;16.98;;
59127;SDS011;44912;52.754;5.994;2024-02-26T04:26:20;29.00;;;17.92;;
59127;SDS011;44912;52.754;5.994;2024-02-26T04:28:46;28.38;;;17.58;;
59127;SDS011;44912;52.754;5.994;2024-02-26T04:31:12;26.42;;;16.17;;
59127;SDS011;44912;52.754;5.994;2024-02-26T04:33:37;26.90;;;16.67;;
59127;SDS011;44912;52.754;5.994;2024-02-26T04:36:03;23.85;;;15.32;;
59127;SDS011;44912;52.754;5.994;2024-02-26T04:38:29;29.25;;;16.80;;
59127;SDS011;44912;52.754;5.994;2024-02-26T04:40:55;26.35;;;15.98;;
59127;SDS011;44912;52.754;5.994;2024-02-26T04:43:20;26.77;;;16.05;;
59127;SDS011;44912;52.754;5.994;2024-02-26T04:45:46;27.90;;;15.98;;
59127;SDS011;44912;52.754;5.994;2024-02-26T04:48:12;23.88;;;14.48;;
59127;SDS011;44912;52.754;5.994;2024-02-26T04:50:37;23.30;;;15.05;;
59127;SDS011;44912;52.754;5.994;2024-02-26T04:53:03;23.25;;;14.40;;
59127;SDS011;44912;52.754;5.994;2024-02-26T04:55:29;23.13;;;13.77;;
59127;SDS011;44912;52.754;5.994;2024-02-26T04:57:54;22.33;;;13.73;;
59127;SDS011;44912;52.754;5.994;2024-02-26T05:00:20;21.48;;;13.52;;
59127;SDS011;44912;52.754;5.994;2024-02-26T05:02:45;19.00;;;12.95;;
59127;SDS011;44912;52.754;5.994;2024-02-26T05:05:11;19.35;;;12.90;;
59127;SDS011;44912;52.754;5.994;2024-02-26T05:07:41;23.48;;;13.48;;
59127;SDS011;44912;52.754;5.994;2024-02-26T05:10:10;20.27;;;12.57;;
59127;SDS011;44912;52.754;5.994;2024-02-26T05:12:36;20.10;;;12.02;;
59127;SDS011;44912;52.754;5.994;2024-02-26T05:15:02;18.67;;;11.98;;
59127;SDS011;44912;52.754;5.994;2024-02-26T05:17:28;18.95;;;12.57;;
59127;SDS011;44912;52.754;5.994;2024-02-26T05:19:53;18.58;;;11.80;;
59127;SDS011;44912;52.754;5.994;2024-02-26T05:22:19;17.95;;;11.60;;
59127;SDS011;44912;52.754;5.994;2024-02-26T05:24:45;18.80;;;11.32;;
59127;SDS011;44912;52.754;5.994;2024-02-26T05:27:11;17.70;;;11.10;;
59127;SDS011;44912;52.754;5.994;2024-02-26T05:29:37;19.98;;;11.38;;
59127;SDS011;44912;52.754;5.994;2024-02-26T05:32:03;17.00;;;11.13;;
59127;SDS011;44912;52.754;5.994;2024-02-26T05:34:30;18.70;;;11.27;;
59127;SDS011;44912;52.754;5.994;2024-02-26T05:36:55;16.20;;;10.40;;
59127;SDS011;44912;52.754;5.994;2024-02-26T05:39:21;15.82;;;10.75;;
59127;SDS011;44912;52.754;5.994;2024-02-26T05:41:47;17.92;;;10.25;;
59127;SDS011;44912;52.754;5.994;2024-02-26T05:44:12;17.23;;;10.18;;
59127;SDS011;44912;52.754;5.994;2024-02-26T05:46:39;18.30;;;9.95;;
59127;SDS011;44912;52.754;5.994;2024-02-26T05:49:05;16.77;;;9.82;;
59127;SDS011;44912;52.754;5.994;2024-02-26T05:51:32;14.45;;;9.65;;
59127;SDS011;44912;52.754;5.994;2024-02-26T05:53:57;14.88;;;8.52;;
59127;SDS011;44912;52.754;5.994;2024-02-26T05:56:23;13.90;;;7.95;;
59127;SDS011;44912;52.754;5.994;2024-02-26T05:58:49;14.98;;;8.63;;
59127;SDS011;44912;52.754;5.994;2024-02-26T06:01:16;15.32;;;8.73;;
59127;SDS011;44912;52.754;5.994;2024-02-26T06:03:42;16.40;;;9.05;;
59127;SDS011;44912;52.754;5.994;2024-02-26T06:06:08;14.82;;;9.05;;
59127;SDS011;44912;52.754;5.994;2024-02-26T06:08:35;14.45;;;8.40;;
59127;SDS011;44912;52.754;5.994;2024-02-26T06:11:04;15.05;;;8.88;;
59127;SDS011;44912;52.754;5.994;2024-02-26T06:13:31;14.20;;;8.55;;
59127;SDS011;44912;52.754;5.994;2024-02-26T06:15:57;14.60;;;8.40;;
59127;SDS011;44912;52.754;5.994;2024-02-26T06:18:23;13.73;;;7.85;;
59127;SDS011;44912;52.754;5.994;2024-02-26T06:20:48;14.65;;;8.25;;
59127;SDS011;44912;52.754;5.994;2024-02-26T06:23:14;12.88;;;7.93;;
59127;SDS011;44912;52.754;5.994;2024-02-26T06:25:41;12.85;;;7.57;;
59127;SDS011;44912;52.754;5.994;2024-02-26T06:28:07;12.68;;;7.57;;
59127;SDS011;44912;52.754;5.994;2024-02-26T06:30:33;13.35;;;7.63;;
59127;SDS011;44912;52.754;5.994;2024-02-26T06:32:59;12.32;;;6.97;;
59127;SDS011;44912;52.754;5.994;2024-02-26T06:35:25;13.00;;;6.60;;
59127;SDS011;44912;52.754;5.994;2024-02-26T06:37:51;12.85;;;6.75;;
59127;SDS011;44912;52.754;5.994;2024-02-26T06:40:18;10.55;;;6.40;;
59127;SDS011;44912;52.754;5.994;2024-02-26T06:42:47;10.73;;;6.65;;
59127;SDS011;44912;52.754;5.994;2024-02-26T06:45:12;11.05;;;6.32;;
59127;SDS011;44912;52.754;5.994;2024-02-26T06:47:38;9.63;;;5.95;;
59127;SDS011;44912;52.754;5.994;2024-02-26T06:50:04;9.60;;;5.68;;
59127;SDS011;44912;52.754;5.994;2024-02-26T06:52:30;10.63;;;5.43;;
59127;SDS011;44912;52.754;5.994;2024-02-26T06:54:55;10.07;;;5.20;;
59127;SDS011;44912;52.754;5.994;2024-02-26T06:57:21;10.98;;;5.18;;
59127;SDS011;44912;52.754;5.994;2024-02-26T06:59:47;9.63;;;5.40;;
59127;SDS011;44912;52.754;5.994;2024-02-26T07:02:13;7.88;;;4.68;;
59127;SDS011;44912;52.754;5.994;2024-02-26T07:04:39;9.90;;;4.70;;
59127;SDS011;44912;52.754;5.994;2024-02-26T07:07:05;9.00;;;4.80;;
59127;SDS011;44912;52.754;5.994;2024-02-26T07:09:32;10.32;;;4.90;;
59127;SDS011;44912;52.754;5.994;2024-02-26T07:11:57;10.00;;;4.75;;
59127;SDS011;44912;52.754;5.994;2024-02-26T07:14:23;8.60;;;4.72;;
59127;SDS011;44912;52.754;5.994;2024-02-26T07:16:49;8.23;;;4.60;;
59127;SDS011;44912;52.754;5.994;2024-02-26T07:19:15;8.30;;;4.68;;
59127;SDS011;44912;52.754;5.994;2024-02-26T07:21:41;8.30;;;4.80;;
59127;SDS011;44912;52.754;5.994;2024-02-26T07:24:07;7.95;;;4.20;;
59127;SDS011;44912;52.754;5.994;2024-02-26T07:26:32;8.75;;;5.05;;
59127;SDS011;44912;52.754;5.994;2024-02-26T07:28:58;9.05;;;4.60;;
59127;SDS011;44912;52.754;5.994;2024-02-26T07:31:25;7.72;;;4.60;;
59127;SDS011;44912;52.754;5.994;2024-02-26T07:33:51;9.65;;;4.88;;
59127;SDS011;44912;52.754;5.994;2024-02-26T07:36:16;9.27;;;4.88;;
59127;SDS011;44912;52.754;5.994;2024-02-26T07:38:42;10.45;;;4.82;;
59127;SDS011;44912;52.754;5.994;2024-02-26T07:41:08;9.25;;;4.68;;
59127;SDS011;44912;52.754;5.994;2024-02-26T07:43:34;8.00;;;4.35;;
59127;SDS011;44912;52.754;5.994;2024-02-26T07:45:59;8.15;;;4.70;;
59127;SDS011;44912;52.754;5.994;2024-02-26T07:48:25;7.70;;;4.65;;
59127;SDS011;44912;52.754;5.994;2024-02-26T07:50:51;9.40;;;5.32;;
59127;SDS011;44912;52.754;5.994;2024-02-26T07:53:16;8.00;;;4.68;;
59127;SDS011;44912;52.754;5.994;2024-02-26T07:55:42;9.13;;;5.00;;
59127;SDS011;44912;52.754;5.994;2024-02-26T07:58:08;9.10;;;5.38;;
59127;SDS011;44912;52.754;5.994;2024-02-26T08:00:33;7.97;;;4.80;;
59127;SDS011;44912;52.754;5.994;2024-02-26T08:02:59;9.57;;;5.00;;
59127;SDS011;44912;52.754;5.994;2024-02-26T08:05:25;9.80;;;5.53;;
59127;SDS011;44912;52.754;5.994;2024-02-26T08:07:51;9.18;;;5.22;;
59127;SDS011;44912;52.754;5.994;2024-02-26T08:10:16;9.93;;;5.50;;
59127;SDS011;44912;52.754;5.994;2024-02-26T08:12:42;8.40;;;5.13;;
59127;SDS011;44912;52.754;5.994;2024-02-26T08:15:10;8.52;;;5.07;;
59127;SDS011;44912;52.754;5.994;2024-02-26T08:17:36;8.73;;;5.15;;
59127;SDS011;44912;52.754;5.994;2024-02-26T08:20:02;10.00;;;5.20;;
59127;SDS011;44912;52.754;5.994;2024-02-26T08:22:27;9.68;;;5.30;;
59127;SDS011;44912;52.754;5.994;2024-02-26T08:24:53;7.85;;;5.22;;
59127;SDS011;44912;52.754;5.994;2024-02-26T08:27:19;7.97;;;4.97;;
59127;SDS011;44912;52.754;5.994;2024-02-26T08:29:44;7.88;;;4.78;;
59127;SDS011;44912;52.754;5.994;2024-02-26T08:32:10;11.90;;;5.20;;
59127;SDS011;44912;52.754;5.994;2024-02-26T08:34:35;9.48;;;5.10;;
59127;SDS011;44912;52.754;5.994;2024-02-26T08:37:02;9.05;;;4.88;;
59127;SDS011;44912;52.754;5.994;2024-02-26T08:39:27;8.45;;;5.05;;
59127;SDS011;44912;52.754;5.994;2024-02-26T08:41:53;9.35;;;4.80;;
59127;SDS011;44912;52.754;5.994;2024-02-26T08:44:19;8.32;;;4.80;;
59127;SDS011;44912;52.754;5.994;2024-02-26T08:46:44;8.48;;;4.75;;
59127;SDS011;44912;52.754;5.994;2024-02-26T08:49:11;9.10;;;4.82;;
59127;SDS011;44912;52.754;5.994;2024-02-26T08:51:41;8.20;;;5.22;;
59127;SDS011;44912;52.754;5.994;2024-02-26T08:54:08;10.73;;;4.70;;
59127;SDS011;44912;52.754;5.994;2024-02-26T08:56:33;8.77;;;5.03;;
59127;SDS011;44912;52.754;5.994;2024-02-26T08:58:59;9.23;;;5.18;;
59127;SDS011;44912;52.754;5.994;2024-02-26T09:01:28;8.13;;;4.72;;
59127;SDS011;44912;52.754;5.994;2024-02-26T09:03:54;8.20;;;4.72;;
59127;SDS011;44912;52.754;5.994;2024-02-26T09:06:21;7.78;;;4.40;;
59127;SDS011;44912;52.754;5.994;2024-02-26T09:08:46;7.53;;;4.00;;
59127;SDS011;44912;52.754;5.994;2024-02-26T09:11:12;9.07;;;4.78;;
59127;SDS011;44912;52.754;5.994;2024-02-26T09:13:38;8.07;;;4.80;;
59127;SDS011;44912;52.754;5.994;2024-02-26T09:16:03;7.88;;;4.80;;
59127;SDS011;44912;52.754;5.994;2024-02-26T09:18:30;9.52;;;4.72;;
59127;SDS011;44912;52.754;5.994;2024-02-26T09:20:56;7.68;;;4.35;;
59127;SDS011;44912;52.754;5.994;2024-02-26T09:23:22;8.45;;;4.65;;
59127;SDS011;44912;52.754;5.994;2024-02-26T09:25:47;8.60;;;4.60;;
59127;SDS011;44912;52.754;5.994;2024-02-26T09:28:13;11.88;;;5.25;;
59127;SDS011;44912;52.754;5.994;2024-02-26T09:30:41;9.13;;;4.75;;
59127;SDS011;44912;52.754;5.994;2024-02-26T09:33:07;7.15;;;4.13;;
59127;SDS011;44912;52.754;5.994;2024-02-26T09:35:33;8.25;;;4.90;;
59127;SDS011;44912;52.754;5.994;2024-02-26T09:37:59;9.90;;;4.75;;
59127;SDS011;44912;52.754;5.994;2024-02-26T09:40:24;9.23;;;4.55;;
59127;SDS011;44912;52.754;5.994;2024-02-26T09:42:50;7.30;;;4.22;;
59127;SDS011;44912;52.754;5.994;2024-02-26T09:45:18;7.22;;;4.35;;
59127;SDS011;44912;52.754;5.994;2024-02-26T09:47:47;7.15;;;4.22;;
59127;SDS011;44912;52.754;5.994;2024-02-26T09:50:14;7.95;;;4.53;;
59127;SDS011;44912;52.754;5.994;2024-02-26T09:52:42;8.27;;;4.28;;
59127;SDS011;44912;52.754;5.994;2024-02-26T09:55:09;8.25;;;4.25;;
59127;SDS011;44912;52.754;5.994;2024-02-26T09:57:36;7.40;;;4.22;;
59127;SDS011;44912;52.754;5.994;2024-02-26T10:00:02;8.57;;;5.00;;
59127;SDS011;44912;52.754;5.994;2024-02-26T10:02:30;7.80;;;4.63;;
59127;SDS011;44912;52.754;5.994;2024-02-26T10:04:58;8.02;;;4.47;;
59127;SDS011;44912;52.754;5.994;2024-02-26T10:07:29;10.00;;;4.55;;
59127;SDS011;44912;52.754;5.994;2024-02-26T10:09:55;7.80;;;4.15;;
59127;SDS011;44912;52.754;5.994;2024-02-26T10:12:21;8.02;;;4.47;;
59127;SDS011;44912;52.754;5.994;2024-02-26T10:14:48;7.07;;;4.22;;
59127;SDS011;44912;52.754;5.994;2024-02-26T10:17:13;7.55;;;4.22;;
59127;SDS011;44912;52.754;5.994;2024-02-26T10:19:40;7.90;;;4.32;;
59127;SDS011;44912;52.754;5.994;2024-02-26T10:22:05;7.78;;;4.40;;
59127;SDS011;44912;52.754;5.994;2024-02-26T10:24:31;7.68;;;4.22;;
59127;SDS011;44912;52.754;5.994;2024-02-26T10:26:59;10.07;;;4.45;;
59127;SDS011;44912;52.754;5.994;2024-02-26T10:29:25;7.18;;;4.43;;
59127;SDS011;44912;52.754;5.994;2024-02-26T10:31:51;8.95;;;4.80;;
59127;SDS011;44912;52.754;5.994;2024-02-26T10:34:17;8.45;;;4.72;;
59127;SDS011;44912;52.754;5.994;2024-02-26T10:36:43;10.60;;;4.20;;
59127;SDS011;44912;52.754;5.994;2024-02-26T10:39:09;7.72;;;4.40;;
59127;SDS011;44912;52.754;5.994;2024-02-26T10:41:38;7.80;;;4.47;;
59127;SDS011;44912;52.754;5.994;2024-02-26T10:44:05;9.10;;;4.28;;
59127;SDS011;44912;52.754;5.994;2024-02-26T10:46:33;8.65;;;3.95;;
59127;SDS011;44912;52.754;5.994;2024-02-26T10:49:00;7.07;;;4.18;;
59127;SDS011;44912;52.754;5.994;2024-02-26T10:51:26;7.95;;;4.57;;
59127;SDS011;44912;52.754;5.994;2024-02-26T10:53:57;8.02;;;3.97;;
59127;SDS011;44912;52.754;5.994;2024-02-26T10:56:27;6.97;;;4.10;;
59127;SDS011;44912;52.754;5.994;2024-02-26T10:58:57;6.75;;;3.92;;
59127;SDS011;44912;52.754;5.994;2024-02-26T11:01:24;7.32;;;3.85;;
59127;SDS011;44912;52.754;5.994;2024-02-26T11:03:51;7.80;;;3.65;;
59127;SDS011;44912;52.754;5.994;2024-02-26T11:06:21;6.63;;;4.00;;
59127;SDS011;44912;52.754;5.994;2024-02-26T11:08:50;6.63;;;3.65;;
59127;SDS011;44912;52.754;5.994;2024-02-26T11:11:22;6.43;;;3.58;;
59127;SDS011;44912;52.754;5.994;2024-02-26T11:13:49;7.03;;;3.90;;
59127;SDS011;44912;52.754;5.994;2024-02-26T11:16:25;6.68;;;3.40;;
59127;SDS011;44912;52.754;5.994;2024-02-26T11:18:52;6.72;;;3.40;;
59127;SDS011;44912;52.754;5.994;2024-02-26T11:21:20;5.70;;;3.42;;
59127;SDS011;44912;52.754;5.994;2024-02-26T11:23:55;6.03;;;3.22;;
59127;SDS011;44912;52.754;5.994;2024-02-26T11:26:21;5.93;;;3.35;;
59127;SDS011;44912;52.754;5.994;2024-02-26T11:28:49;5.88;;;3.67;;
59127;SDS011;44912;52.754;5.994;2024-02-26T11:31:16;6.32;;;3.55;;
59127;SDS011;44912;52.754;5.994;2024-02-26T11:33:43;6.30;;;3.53;;
59127;SDS011;44912;52.754;5.994;2024-02-26T11:36:09;6.78;;;3.30;;
59127;SDS011;44912;52.754;5.994;2024-02-26T11:38:36;7.55;;;3.80;;
59127;SDS011;44912;52.754;5.994;2024-02-26T11:41:03;7.70;;;3.80;;
59127;SDS011;44912;52.754;5.994;2024-02-26T11:46:28;5.72;;;3.22;;
59127;SDS011;44912;52.754;5.994;2024-02-26T11:48:59;7.20;;;3.50;;
59127;SDS011;44912;52.754;5.994;2024-02-26T11:51:35;6.63;;;3.50;;
59127;SDS011;44912;52.754;5.994;2024-02-26T11:54:01;5.82;;;2.95;;
59127;SDS011;44912;52.754;5.994;2024-02-26T11:56:27;6.70;;;3.40;;
59127;SDS011;44912;52.754;5.994;2024-02-26T11:58:57;6.60;;;3.50;;
59127;SDS011;44912;52.754;5.994;2024-02-26T12:01:36;7.05;;;3.30;;
59127;SDS011;44912;52.754;5.994;2024-02-26T12:04:06;5.10;;;2.80;;
59127;SDS011;44912;52.754;5.994;2024-02-26T12:06:42;6.03;;;3.25;;
59127;SDS011;44912;52.754;5.994;2024-02-26T12:09:10;6.80;;;3.45;;
59127;SDS011;44912;52.754;5.994;2024-02-26T12:11:38;5.75;;;3.17;;
59127;SDS011;44912;52.754;5.994;2024-02-26T12:16:36;5.57;;;3.20;;
59127;SDS011;44912;52.754;5.994;2024-02-26T12:19:08;5.55;;;3.13;;
59127;SDS011;44912;52.754;5.994;2024-02-26T12:21:35;5.43;;;2.92;;
59127;SDS011;44912;52.754;5.994;2024-02-26T12:24:11;9.35;;;2.78;;
59127;SDS011;44912;52.754;5.994;2024-02-26T12:26:41;6.35;;;2.92;;
59127;SDS011;44912;52.754;5.994;2024-02-26T12:29:07;5.55;;;2.70;;
59127;SDS011;44912;52.754;5.994;2024-02-26T12:31:34;4.47;;;2.65;;
59127;SDS011;44912;52.754;5.994;2024-02-26T12:34:02;5.93;;;2.83;;
59127;SDS011;44912;52.754;5.994;2024-02-26T12:36:28;6.90;;;2.70;;
59127;SDS011;44912;52.754;5.994;2024-02-26T12:38:54;5.50;;;3.05;;
59127;SDS011;44912;52.754;5.994;2024-02-26T12:41:20;5.78;;;2.60;;
59127;SDS011;44912;52.754;5.994;2024-02-26T12:43:46;4.95;;;2.58;;
59127;SDS011;44912;52.754;5.994;2024-02-26T12:46:12;4.78;;;2.33;;
59127;SDS011;44912;52.754;5.994;2024-02-26T12:48:39;6.00;;;2.70;;
59127;SDS011;44912;52.754;5.994;2024-02-26T12:51:06;7.43;;;2.85;;
59127;SDS011;44912;52.754;5.994;2024-02-26T12:53:32;7.22;;;3.15;;
59127;SDS011;44912;52.754;5.994;2024-02-26T12:55:58;6.35;;;2.90;;
59127;SDS011;44912;52.754;5.994;2024-02-26T12:58:23;5.53;;;3.08;;
59127;SDS011;44912;52.754;5.994;2024-02-26T13:00:53;5.60;;;3.00;;
59127;SDS011;44912;52.754;5.994;2024-02-26T13:03:19;4.95;;;2.88;;
59127;SDS011;44912;52.754;5.994;2024-02-26T13:05:47;6.75;;;3.45;;
59127;SDS011;44912;52.754;5.994;2024-02-26T13:08:19;6.80;;;3.60;;
59127;SDS011;44912;52.754;5.994;2024-02-26T13:10:45;7.38;;;3.45;;
59127;SDS011;44912;52.754;5.994;2024-02-26T13:13:14;5.63;;;3.38;;
59127;SDS011;44912;52.754;5.994;2024-02-26T13:15:43;6.88;;;3.60;;
59127;SDS011;44912;52.754;5.994;2024-02-26T13:18:13;5.55;;;3.17;;
59127;SDS011;44912;52.754;5.994;2024-02-26T13:20:39;7.40;;;3.40;;
59127;SDS011;44912;52.754;5.994;2024-02-26T13:23:12;6.28;;;3.35;;
59127;SDS011;44912;52.754;5.994;2024-02-26T13:25:38;6.85;;;3.85;;
59127;SDS011;44912;52.754;5.994;2024-02-26T13:28:22;6.38;;;3.42;;
59127;SDS011;44912;52.754;5.994;2024-02-26T13:33:21;6.90;;;3.83;;
59127;SDS011;44912;52.754;5.994;2024-02-26T13:35:47;8.60;;;4.18;;
59127;SDS011;44912;52.754;5.994;2024-02-26T13:38:13;10.50;;;4.30;;
59127;SDS011;44912;52.754;5.994;2024-02-26T13:40:39;8.32;;;4.32;;
59127;SDS011;44912;52.754;5.994;2024-02-26T13:43:05;8.90;;;4.30;;
59127;SDS011;44912;52.754;5.994;2024-02-26T13:45:33;7.65;;;4.00;;
59127;SDS011;44912;52.754;5.994;2024-02-26T13:48:07;8.90;;;4.47;;
59127;SDS011;44912;52.754;5.994;2024-02-26T13:53:00;10.20;;;4.68;;
59127;SDS011;44912;52.754;5.994;2024-02-26T13:55:26;8.73;;;4.60;;
59127;SDS011;44912;52.754;5.994;2024-02-26T13:57:56;8.15;;;4.43;;
59127;SDS011;44912;52.754;5.994;2024-02-26T14:00:30;9.80;;;4.68;;
59127;SDS011;44912;52.754;5.994;2024-02-26T14:02:59;8.05;;;4.75;;
59127;SDS011;44912;52.754;5.994;2024-02-26T14:05:25;9.68;;;4.88;;
59127;SDS011;44912;52.754;5.994;2024-02-26T14:07:52;7.93;;;4.85;;
59127;SDS011;44912;52.754;5.994;2024-02-26T14:10:18;7.25;;;4.32;;
59127;SDS011;44912;52.754;5.994;2024-02-26T14:12:44;8.38;;;4.80;;
59127;SDS011;44912;52.754;5.994;2024-02-26T14:15:10;8.15;;;4.78;;
59127;SDS011;44912;52.754;5.994;2024-02-26T14:17:36;8.23;;;4.68;;
59127;SDS011;44912;52.754;5.994;2024-02-26T14:20:02;10.68;;;4.65;;
59127;SDS011;44912;52.754;5.994;2024-02-26T14:22:28;9.88;;;5.30;;
59127;SDS011;44912;52.754;5.994;2024-02-26T14:24:55;8.65;;;5.20;;
59127;SDS011;44912;52.754;5.994;2024-02-26T14:27:22;9.57;;;4.80;;
59127;SDS011;44912;52.754;5.994;2024-02-26T14:29:49;10.38;;;5.03;;
59127;SDS011;44912;52.754;5.994;2024-02-26T14:32:15;10.30;;;5.05;;
59127;SDS011;44912;52.754;5.994;2024-02-26T14:34:41;8.45;;;5.05;;
59127;SDS011;44912;52.754;5.994;2024-02-26T14:37:06;8.45;;;5.07;;
59127;SDS011;44912;52.754;5.994;2024-02-26T14:39:32;10.32;;;5.20;;
59127;SDS011;44912;52.754;5.994;2024-02-26T14:41:58;8.90;;;5.13;;